sensor_id;sensor_type;location;lat;lon;timestamp;temperature;humidity
34646;DHT22;20857;47.808;12.482;2023-05-10T00:02:21;13.90;99.90
34646;DHT22;20857;47.808;12.482;2023-05-10T00:04:47;13.80;99.90
34646;DHT22;20857;47.808;12.482;2023-05-10T00:07:12;13.80;99.90
34646;DHT22;20857;47.808;12.482;2023-05-10T00:09:38;13.80;99.90
34646;DHT22;20857;47.808;12.482;2023-05-10T00:12:03;13.80;99.90
34646;DHT22;20857;47.808;12.482;2023-05-10T00:14:29;13.80;99.90
34646;DHT22;20857;47.808;12.482;2023-05-10T00:16:55;13.70;99.90
34646;DHT22;20857;47.808;12.482;2023-05-10T00:19:20;13.70;99.90
34646;DHT22;20857;47.808;12.482;2023-05-10T00:21:46;13.70;99.90
34646;DHT22;20857;47.808;12.482;2023-05-10T00:24:11;13.70;99.90
34646;DHT22;20857;47.808;12.482;2023-05-10T00:26:37;13.70;99.90
34646;DHT22;20857;47.808;12.482;2023-05-10T00:29:02;13.70;99.90
34646;DHT22;20857;47.808;12.482;2023-05-10T00:31:28;13.80;99.90
34646;DHT22;20857;47.808;12.482;2023-05-10T00:33:54;13.80;99.90
34646;DHT22;20857;47.808;12.482;2023-05-10T00:36:19;13.90;99.90
34646;DHT22;20857;47.808;12.482;2023-05-10T00:38:46;13.90;99.90
34646;DHT22;20857;47.808;12.482;2023-05-10T00:41:11;13.80;99.90
34646;DHT22;20857;47.808;12.482;2023-05-10T00:43:37;13.80;99.90
34646;DHT22;20857;47.808;12.482;2023-05-10T00:46:02;13.80;99.90
34646;DHT22;20857;47.808;12.482;2023-05-10T00:48:28;13.90;99.90
34646;DHT22;20857;47.808;12.482;2023-05-10T00:50:54;14.00;99.90
34646;DHT22;20857;47.808;12.482;2023-05-10T00:53:19;13.90;99.90
34646;DHT22;20857;47.808;12.482;2023-05-10T00:55:45;13.90;99.90
34646;DHT22;20857;47.808;12.482;2023-05-10T00:58:10;14.00;99.90
34646;DHT22;20857;47.808;12.482;2023-05-10T01:00:37;14.00;99.90
34646;DHT22;20857;47.808;12.482;2023-05-10T01:03:03;14.00;99.90
34646;DHT22;20857;47.808;12.482;2023-05-10T01:05:29;14.00;99.90
34646;DHT22;20857;47.808;12.482;2023-05-10T01:07:55;14.00;99.90
34646;DHT22;20857;47.808;12.482;2023-05-10T01:10:21;13.90;99.90
34646;DHT22;20857;47.808;12.482;2023-05-10T01:12:47;13.80;99.90
34646;DHT22;20857;47.808;12.482;2023-05-10T01:15:13;13.80;99.90
34646;DHT22;20857;47.808;12.482;2023-05-10T01:17:40;13.70;99.90
34646;DHT22;20857;47.808;12.482;2023-05-10T01:20:07;13.70;99.90
34646;DHT22;20857;47.808;12.482;2023-05-10T01:31:25;13.50;99.90
34646;DHT22;20857;47.808;12.482;2023-05-10T01:33:19;13.50;99.90
34646;DHT22;20857;47.808;12.482;2023-05-10T01:35:47;13.40;99.90
34646;DHT22;20857;47.808;12.482;2023-05-10T01:38:38;13.40;99.90
34646;DHT22;20857;47.808;12.482;2023-05-10T01:43:42;13.30;99.90
34646;DHT22;20857;47.808;12.482;2023-05-10T01:46:14;13.30;99.90
34646;DHT22;20857;47.808;12.482;2023-05-10T01:48:43;13.20;99.90
34646;DHT22;20857;47.808;12.482;2023-05-10T01:51:12;13.20;99.90
34646;DHT22;20857;47.808;12.482;2023-05-10T01:53:39;13.00;99.90
34646;DHT22;20857;47.808;12.482;2023-05-10T01:56:05;13.10;99.90
34646;DHT22;20857;47.808;12.482;2023-05-10T01:58:34;13.10;99.90
34646;DHT22;20857;47.808;12.482;2023-05-10T02:01:02;13.10;99.90
34646;DHT22;20857;47.808;12.482;2023-05-10T02:03:28;13.10;99.90
34646;DHT22;20857;47.808;12.482;2023-05-10T02:05:55;13.40;99.90
34646;DHT22;20857;47.808;12.482;2023-05-10T02:08:21;13.10;99.90
34646;DHT22;20857;47.808;12.482;2023-05-10T02:10:47;13.10;99.90
34646;DHT22;20857;47.808;12.482;2023-05-10T02:13:14;13.00;99.90
34646;DHT22;20857;47.808;12.482;2023-05-10T02:15:40;13.00;99.90
34646;DHT22;20857;47.808;12.482;2023-05-10T02:18:06;13.20;99.90
34646;DHT22;20857;47.808;12.482;2023-05-10T02:20:32;13.00;99.90
34646;DHT22;20857;47.808;12.482;2023-05-10T02:23:00;13.00;99.90
34646;DHT22;20857;47.808;12.482;2023-05-10T02:25:26;12.90;99.90
34646;DHT22;20857;47.808;12.482;2023-05-10T02:27:55;12.90;99.90
34646;DHT22;20857;47.808;12.482;2023-05-10T02:30:22;12.90;99.90
34646;DHT22;20857;47.808;12.482;2023-05-10T02:32:49;12.80;99.90
34646;DHT22;20857;47.808;12.482;2023-05-10T02:35:14;12.90;99.90
34646;DHT22;20857;47.808;12.482;2023-05-10T02:37:40;12.70;99.90
34646;DHT22;20857;47.808;12.482;2023-05-10T02:40:06;12.80;99.90
34646;DHT22;20857;47.808;12.482;2023-05-10T02:42:33;12.80;99.90
34646;DHT22;20857;47.808;12.482;2023-05-10T02:45:01;12.70;99.90
34646;DHT22;20857;47.808;12.482;2023-05-10T02:47:28;12.60;99.90
34646;DHT22;20857;47.808;12.482;2023-05-10T02:49:54;12.60;99.90
34646;DHT22;20857;47.808;12.482;2023-05-10T02:52:21;12.70;99.90
34646;DHT22;20857;47.808;12.482;2023-05-10T02:54:49;12.70;99.90
34646;DHT22;20857;47.808;12.482;2023-05-10T02:57:16;12.70;99.90
34646;DHT22;20857;47.808;12.482;2023-05-10T02:59:44;12.60;99.90
34646;DHT22;20857;47.808;12.482;2023-05-10T03:02:12;12.70;99.90
34646;DHT22;20857;47.808;12.482;2023-05-10T03:04:37;12.60;99.90
34646;DHT22;20857;47.808;12.482;2023-05-10T03:07:03;12.60;99.90
34646;DHT22;20857;47.808;12.482;2023-05-10T03:09:30;12.60;99.90
34646;DHT22;20857;47.808;12.482;2023-05-10T03:12:03;12.70;99.90
34646;DHT22;20857;47.808;12.482;2023-05-10T03:17:22;12.80;99.90
34646;DHT22;20857;47.808;12.482;2023-05-10T03:19:56;12.70;99.90
34646;DHT22;20857;47.808;12.482;2023-05-10T03:22:26;12.70;99.90
34646;DHT22;20857;47.808;12.482;2023-05-10T03:24:54;12.80;99.90
34646;DHT22;20857;47.808;12.482;2023-05-10T03:27:21;12.70;99.90
34646;DHT22;20857;47.808;12.482;2023-05-10T03:29:47;12.70;99.90
34646;DHT22;20857;47.808;12.482;2023-05-10T03:32:13;12.80;99.90
34646;DHT22;20857;47.808;12.482;2023-05-10T03:34:42;12.70;99.90
34646;DHT22;20857;47.808;12.482;2023-05-10T03:37:08;12.70;99.90
34646;DHT22;20857;47.808;12.482;2023-05-10T03:39:34;12.70;99.90
34646;DHT22;20857;47.808;12.482;2023-05-10T03:41:59;12.70;99.90
34646;DHT22;20857;47.808;12.482;2023-05-10T03:44:25;12.70;99.90
34646;DHT22;20857;47.808;12.482;2023-05-10T03:46:50;12.70;99.90
34646;DHT22;20857;47.808;12.482;2023-05-10T03:49:16;12.70;99.90
34646;DHT22;20857;47.808;12.482;2023-05-10T03:51:41;12.70;99.90
34646;DHT22;20857;47.808;12.482;2023-05-10T03:54:07;12.70;99.90
34646;DHT22;20857;47.808;12.482;2023-05-10T03:56:32;12.80;99.90
34646;DHT22;20857;47.808;12.482;2023-05-10T03:58:58;12.80;99.90
34646;DHT22;20857;47.808;12.482;2023-05-10T04:01:23;12.80;99.90
34646;DHT22;20857;47.808;12.482;2023-05-10T04:03:49;12.80;99.90
34646;DHT22;20857;47.808;12.482;2023-05-10T04:06:14;12.70;99.90
34646;DHT22;20857;47.808;12.482;2023-05-10T04:08:40;12.70;99.90
34646;DHT22;20857;47.808;12.482;2023-05-10T04:11:09;12.80;99.90
34646;DHT22;20857;47.808;12.482;2023-05-10T04:13:35;12.80;99.90
34646;DHT22;20857;47.808;12.482;2023-05-10T04:16:00;12.80;99.90
34646;DHT22;20857;47.808;12.482;2023-05-10T04:18:26;12.70;99.90
34646;DHT22;20857;47.808;12.482;2023-05-10T04:20:51;12.60;99.90
34646;DHT22;20857;47.808;12.482;2023-05-10T04:23:17;12.60;99.90
34646;DHT22;20857;47.808;12.482;2023-05-10T04:25:42;12.40;99.90
34646;DHT22;20857;47.808;12.482;2023-05-10T04:28:08;12.30;99.90
34646;DHT22;20857;47.808;12.482;2023-05-10T04:30:34;12.20;99.90
34646;DHT22;20857;47.808;12.482;2023-05-10T04:33:00;12.10;99.90
34646;DHT22;20857;47.808;12.482;2023-05-10T04:35:26;12.00;99.90
34646;DHT22;20857;47.808;12.482;2023-05-10T04:37:52;12.10;99.90
34646;DHT22;20857;47.808;12.482;2023-05-10T04:40:17;12.20;99.90
34646;DHT22;20857;47.808;12.482;2023-05-10T04:42:43;12.20;99.90
34646;DHT22;20857;47.808;12.482;2023-05-10T04:45:09;12.30;99.90
34646;DHT22;20857;47.808;12.482;2023-05-10T04:47:34;12.30;99.90
34646;DHT22;20857;47.808;12.482;2023-05-10T04:50:00;12.30;99.90
34646;DHT22;20857;47.808;12.482;2023-05-10T04:52:26;12.30;99.90
34646;DHT22;20857;47.808;12.482;2023-05-10T04:54:51;12.30;99.90
34646;DHT22;20857;47.808;12.482;2023-05-10T04:57:17;12.40;99.90
34646;DHT22;20857;47.808;12.482;2023-05-10T04:59:42;12.40;99.90
34646;DHT22;20857;47.808;12.482;2023-05-10T05:02:08;12.50;99.90
34646;DHT22;20857;47.808;12.482;2023-05-10T05:04:33;12.60;99.90
34646;DHT22;20857;47.808;12.482;2023-05-10T05:06:59;12.60;99.90
34646;DHT22;20857;47.808;12.482;2023-05-10T05:09:24;12.70;99.90
34646;DHT22;20857;47.808;12.482;2023-05-10T05:11:50;12.70;99.90
34646;DHT22;20857;47.808;12.482;2023-05-10T05:14:15;12.70;99.90
34646;DHT22;20857;47.808;12.482;2023-05-10T05:16:41;12.80;99.90
34646;DHT22;20857;47.808;12.482;2023-05-10T05:19:06;12.80;99.90
34646;DHT22;20857;47.808;12.482;2023-05-10T05:21:32;12.90;99.90
34646;DHT22;20857;47.808;12.482;2023-05-10T05:23:57;12.90;99.90
34646;DHT22;20857;47.808;12.482;2023-05-10T05:26:23;12.90;99.90
34646;DHT22;20857;47.808;12.482;2023-05-10T05:28:48;12.90;99.90
34646;DHT22;20857;47.808;12.482;2023-05-10T05:31:16;12.90;99.90
34646;DHT22;20857;47.808;12.482;2023-05-10T05:33:43;12.90;99.90
34646;DHT22;20857;47.808;12.482;2023-05-10T05:36:08;13.00;99.90
34646;DHT22;20857;47.808;12.482;2023-05-10T05:38:34;13.00;99.90
34646;DHT22;20857;47.808;12.482;2023-05-10T05:40:59;13.10;99.90
34646;DHT22;20857;47.808;12.482;2023-05-10T05:43:25;13.20;99.90
34646;DHT22;20857;47.808;12.482;2023-05-10T05:45:54;13.20;99.90
34646;DHT22;20857;47.808;12.482;2023-05-10T05:48:20;13.40;99.90
34646;DHT22;20857;47.808;12.482;2023-05-10T05:50:45;13.50;99.90
34646;DHT22;20857;47.808;12.482;2023-05-10T05:53:12;13.60;99.90
34646;DHT22;20857;47.808;12.482;2023-05-10T05:55:37;13.70;99.90
34646;DHT22;20857;47.808;12.482;2023-05-10T05:58:03;13.70;99.90
34646;DHT22;20857;47.808;12.482;2023-05-10T06:00:28;13.60;99.90
34646;DHT22;20857;47.808;12.482;2023-05-10T06:02:54;13.50;99.90
34646;DHT22;20857;47.808;12.482;2023-05-10T06:05:19;13.40;99.90
34646;DHT22;20857;47.808;12.482;2023-05-10T06:07:46;13.40;99.90
34646;DHT22;20857;47.808;12.482;2023-05-10T06:10:12;13.40;99.90
34646;DHT22;20857;47.808;12.482;2023-05-10T06:12:37;13.40;99.90
34646;DHT22;20857;47.808;12.482;2023-05-10T06:15:03;13.30;99.90
34646;DHT22;20857;47.808;12.482;2023-05-10T06:17:29;13.30;99.90
34646;DHT22;20857;47.808;12.482;2023-05-10T06:19:54;13.20;99.90
34646;DHT22;20857;47.808;12.482;2023-05-10T06:22:20;13.20;99.90
34646;DHT22;20857;47.808;12.482;2023-05-10T06:24:48;13.20;99.90
34646;DHT22;20857;47.808;12.482;2023-05-10T06:27:13;13.30;99.90
34646;DHT22;20857;47.808;12.482;2023-05-10T06:29:39;13.30;99.90
34646;DHT22;20857;47.808;12.482;2023-05-10T06:32:04;13.30;99.90
34646;DHT22;20857;47.808;12.482;2023-05-10T06:34:29;13.10;99.90
34646;DHT22;20857;47.808;12.482;2023-05-10T06:36:55;12.90;99.90
34646;DHT22;20857;47.808;12.482;2023-05-10T06:39:20;12.90;99.90
34646;DHT22;20857;47.808;12.482;2023-05-10T06:41:46;12.90;99.90
34646;DHT22;20857;47.808;12.482;2023-05-10T06:44:11;12.90;99.90
34646;DHT22;20857;47.808;12.482;2023-05-10T06:46:38;13.00;99.90
34646;DHT22;20857;47.808;12.482;2023-05-10T06:49:03;13.30;99.90
34646;DHT22;20857;47.808;12.482;2023-05-10T06:51:29;13.40;99.90
34646;DHT22;20857;47.808;12.482;2023-05-10T06:53:55;13.30;99.90
34646;DHT22;20857;47.808;12.482;2023-05-10T06:56:20;13.30;99.90
34646;DHT22;20857;47.808;12.482;2023-05-10T06:58:47;13.20;99.90
34646;DHT22;20857;47.808;12.482;2023-05-10T07:01:12;13.30;99.90
34646;DHT22;20857;47.808;12.482;2023-05-10T07:03:38;13.40;99.90
34646;DHT22;20857;47.808;12.482;2023-05-10T07:06:04;13.30;99.90
34646;DHT22;20857;47.808;12.482;2023-05-10T07:08:30;13.20;99.90
34646;DHT22;20857;47.808;12.482;2023-05-10T07:10:59;13.20;99.90
34646;DHT22;20857;47.808;12.482;2023-05-10T07:13:25;13.20;99.90
34646;DHT22;20857;47.808;12.482;2023-05-10T07:15:51;13.20;99.90
34646;DHT22;20857;47.808;12.482;2023-05-10T07:18:16;13.20;99.90
34646;DHT22;20857;47.808;12.482;2023-05-10T07:20:42;13.20;99.90
34646;DHT22;20857;47.808;12.482;2023-05-10T07:23:07;13.10;99.90
34646;DHT22;20857;47.808;12.482;2023-05-10T07:25:32;13.10;99.90
34646;DHT22;20857;47.808;12.482;2023-05-10T07:27:58;13.00;99.90
34646;DHT22;20857;47.808;12.482;2023-05-10T07:30:23;13.00;99.90
34646;DHT22;20857;47.808;12.482;2023-05-10T07:32:49;13.00;99.90
34646;DHT22;20857;47.808;12.482;2023-05-10T07:35:14;13.10;99.90
34646;DHT22;20857;47.808;12.482;2023-05-10T07:37:40;13.10;99.90
34646;DHT22;20857;47.808;12.482;2023-05-10T07:40:06;12.80;99.90
34646;DHT22;20857;47.808;12.482;2023-05-10T07:42:31;12.50;99.90
34646;DHT22;20857;47.808;12.482;2023-05-10T07:44:57;12.10;99.90
34646;DHT22;20857;47.808;12.482;2023-05-10T07:47:23;11.80;99.90
34646;DHT22;20857;47.808;12.482;2023-05-10T07:49:48;11.60;99.90
34646;DHT22;20857;47.808;12.482;2023-05-10T07:52:14;11.50;99.90
34646;DHT22;20857;47.808;12.482;2023-05-10T07:54:39;11.50;99.90
34646;DHT22;20857;47.808;12.482;2023-05-10T07:57:05;11.60;99.90
34646;DHT22;20857;47.808;12.482;2023-05-10T07:59:30;11.60;99.90
34646;DHT22;20857;47.808;12.482;2023-05-10T08:01:56;11.70;99.90
34646;DHT22;20857;47.808;12.482;2023-05-10T08:04:21;11.90;99.90
34646;DHT22;20857;47.808;12.482;2023-05-10T08:06:47;12.10;99.90
34646;DHT22;20857;47.808;12.482;2023-05-10T08:09:12;12.10;99.90
34646;DHT22;20857;47.808;12.482;2023-05-10T08:11:38;12.30;99.90
34646;DHT22;20857;47.808;12.482;2023-05-10T08:14:04;12.40;99.90
34646;DHT22;20857;47.808;12.482;2023-05-10T08:16:29;12.50;99.90
34646;DHT22;20857;47.808;12.482;2023-05-10T08:18:55;12.70;99.90
34646;DHT22;20857;47.808;12.482;2023-05-10T08:21:20;12.80;99.90
34646;DHT22;20857;47.808;12.482;2023-05-10T08:23:46;13.00;99.90
34646;DHT22;20857;47.808;12.482;2023-05-10T08:26:11;12.90;99.90
34646;DHT22;20857;47.808;12.482;2023-05-10T08:28:37;13.10;99.90
34646;DHT22;20857;47.808;12.482;2023-05-10T08:31:04;13.30;99.90
34646;DHT22;20857;47.808;12.482;2023-05-10T08:33:29;13.50;99.90
34646;DHT22;20857;47.808;12.482;2023-05-10T08:35:55;13.80;99.90
34646;DHT22;20857;47.808;12.482;2023-05-10T08:38:20;14.00;99.90
34646;DHT22;20857;47.808;12.482;2023-05-10T08:40:46;14.30;99.90
34646;DHT22;20857;47.808;12.482;2023-05-10T08:43:13;14.40;99.90
34646;DHT22;20857;47.808;12.482;2023-05-10T08:45:43;14.60;99.90
34646;DHT22;20857;47.808;12.482;2023-05-10T08:48:09;14.60;99.90
34646;DHT22;20857;47.808;12.482;2023-05-10T08:50:44;14.60;99.90
34646;DHT22;20857;47.808;12.482;2023-05-10T08:53:10;14.60;99.90
34646;DHT22;20857;47.808;12.482;2023-05-10T08:55:36;14.60;99.90
34646;DHT22;20857;47.808;12.482;2023-05-10T08:58:04;14.70;99.90
34646;DHT22;20857;47.808;12.482;2023-05-10T09:00:29;14.70;99.90
34646;DHT22;20857;47.808;12.482;2023-05-10T09:02:56;14.80;99.90
34646;DHT22;20857;47.808;12.482;2023-05-10T09:05:22;14.90;99.90
34646;DHT22;20857;47.808;12.482;2023-05-10T09:07:48;14.90;99.90
34646;DHT22;20857;47.808;12.482;2023-05-10T09:10:14;15.10;99.90
34646;DHT22;20857;47.808;12.482;2023-05-10T09:12:40;15.10;99.90
34646;DHT22;20857;47.808;12.482;2023-05-10T09:15:05;15.10;99.90
34646;DHT22;20857;47.808;12.482;2023-05-10T09:17:32;15.10;99.90
34646;DHT22;20857;47.808;12.482;2023-05-10T09:19:58;15.20;99.90
34646;DHT22;20857;47.808;12.482;2023-05-10T09:22:24;15.40;99.90
34646;DHT22;20857;47.808;12.482;2023-05-10T09:27:31;15.40;99.90
34646;DHT22;20857;47.808;12.482;2023-05-10T09:29:56;15.50;99.90
34646;DHT22;20857;47.808;12.482;2023-05-10T09:32:36;15.40;99.90
34646;DHT22;20857;47.808;12.482;2023-05-10T09:35:05;15.30;99.90
34646;DHT22;20857;47.808;12.482;2023-05-10T09:37:31;15.20;99.90
34646;DHT22;20857;47.808;12.482;2023-05-10T09:39:57;15.20;99.90
34646;DHT22;20857;47.808;12.482;2023-05-10T09:42:22;15.10;99.90
34646;DHT22;20857;47.808;12.482;2023-05-10T09:44:48;15.00;99.90
34646;DHT22;20857;47.808;12.482;2023-05-10T09:47:16;14.90;99.90
34646;DHT22;20857;47.808;12.482;2023-05-10T09:49:42;14.70;99.90
34646;DHT22;20857;47.808;12.482;2023-05-10T09:52:08;14.90;99.90
34646;DHT22;20857;47.808;12.482;2023-05-10T09:54:33;14.90;99.90
34646;DHT22;20857;47.808;12.482;2023-05-10T09:56:59;15.10;99.90
34646;DHT22;20857;47.808;12.482;2023-05-10T09:59:26;15.10;99.90
34646;DHT22;20857;47.808;12.482;2023-05-10T10:01:54;15.20;99.90
34646;DHT22;20857;47.808;12.482;2023-05-10T10:04:20;15.30;99.90
34646;DHT22;20857;47.808;12.482;2023-05-10T10:06:46;15.50;99.90
34646;DHT22;20857;47.808;12.482;2023-05-10T10:09:12;15.70;99.90
34646;DHT22;20857;47.808;12.482;2023-05-10T10:11:38;16.20;99.90
34646;DHT22;20857;47.808;12.482;2023-05-10T10:14:04;16.40;99.90
34646;DHT22;20857;47.808;12.482;2023-05-10T10:16:30;16.60;99.90
34646;DHT22;20857;47.808;12.482;2023-05-10T10:18:56;16.50;99.90
34646;DHT22;20857;47.808;12.482;2023-05-10T10:21:22;16.50;99.90
34646;DHT22;20857;47.808;12.482;2023-05-10T10:23:47;16.60;99.90
34646;DHT22;20857;47.808;12.482;2023-05-10T10:26:13;16.60;99.90
34646;DHT22;20857;47.808;12.482;2023-05-10T10:28:43;16.50;99.90
34646;DHT22;20857;47.808;12.482;2023-05-10T10:31:16;16.50;99.90
34646;DHT22;20857;47.808;12.482;2023-05-10T10:36:14;16.10;99.90
34646;DHT22;20857;47.808;12.482;2023-05-10T10:52:12;15.70;99.90
34646;DHT22;20857;47.808;12.482;2023-05-10T10:54:38;15.70;99.90
34646;DHT22;20857;47.808;12.482;2023-05-10T10:57:10;15.60;99.90
34646;DHT22;20857;47.808;12.482;2023-05-10T10:59:36;15.60;99.90
34646;DHT22;20857;47.808;12.482;2023-05-10T11:02:06;15.60;99.90
34646;DHT22;20857;47.808;12.482;2023-05-10T11:04:40;15.70;99.90
34646;DHT22;20857;47.808;12.482;2023-05-10T11:07:19;15.90;99.90
34646;DHT22;20857;47.808;12.482;2023-05-10T11:09:46;16.10;99.90
34646;DHT22;20857;47.808;12.482;2023-05-10T11:12:11;16.30;99.90
34646;DHT22;20857;47.808;12.482;2023-05-10T11:14:37;16.50;99.90
34646;DHT22;20857;47.808;12.482;2023-05-10T11:17:21;16.70;99.90
34646;DHT22;20857;47.808;12.482;2023-05-10T11:20:02;16.70;99.90
34646;DHT22;20857;47.808;12.482;2023-05-10T11:22:28;16.80;99.90
34646;DHT22;20857;47.808;12.482;2023-05-10T11:24:57;16.90;99.90
34646;DHT22;20857;47.808;12.482;2023-05-10T11:27:25;16.80;99.90
34646;DHT22;20857;47.808;12.482;2023-05-10T11:29:51;16.50;99.90
34646;DHT22;20857;47.808;12.482;2023-05-10T11:32:16;16.40;99.90
34646;DHT22;20857;47.808;12.482;2023-05-10T11:34:42;16.20;99.90
34646;DHT22;20857;47.808;12.482;2023-05-10T11:37:12;16.10;99.90
34646;DHT22;20857;47.808;12.482;2023-05-10T11:39:38;16.20;99.90
34646;DHT22;20857;47.808;12.482;2023-05-10T11:42:11;16.40;99.90
34646;DHT22;20857;47.808;12.482;2023-05-10T11:44:37;16.50;99.90
34646;DHT22;20857;47.808;12.482;2023-05-10T11:47:02;16.40;99.90
34646;DHT22;20857;47.808;12.482;2023-05-10T11:49:28;16.50;99.90
34646;DHT22;20857;47.808;12.482;2023-05-10T11:52:03;16.50;99.90
34646;DHT22;20857;47.808;12.482;2023-05-10T11:54:28;16.50;99.90
34646;DHT22;20857;47.808;12.482;2023-05-10T11:56:54;16.50;99.90
34646;DHT22;20857;47.808;12.482;2023-05-10T11:59:19;16.70;99.90
34646;DHT22;20857;47.808;12.482;2023-05-10T12:01:45;16.80;99.90
34646;DHT22;20857;47.808;12.482;2023-05-10T12:04:10;16.90;99.90
34646;DHT22;20857;47.808;12.482;2023-05-10T12:06:37;17.00;99.90
34646;DHT22;20857;47.808;12.482;2023-05-10T12:09:06;16.90;99.90
34646;DHT22;20857;47.808;12.482;2023-05-10T12:11:32;17.00;99.90
34646;DHT22;20857;47.808;12.482;2023-05-10T12:13:57;17.10;99.90
34646;DHT22;20857;47.808;12.482;2023-05-10T12:16:24;17.20;99.90
34646;DHT22;20857;47.808;12.482;2023-05-10T12:18:50;17.10;99.90
34646;DHT22;20857;47.808;12.482;2023-05-10T12:21:19;17.10;99.90
34646;DHT22;20857;47.808;12.482;2023-05-10T12:23:45;17.10;99.90
34646;DHT22;20857;47.808;12.482;2023-05-10T12:26:11;17.30;99.90
34646;DHT22;20857;47.808;12.482;2023-05-10T12:28:37;17.20;99.90
34646;DHT22;20857;47.808;12.482;2023-05-10T12:31:02;17.00;99.90
34646;DHT22;20857;47.808;12.482;2023-05-10T12:33:35;17.00;99.90
34646;DHT22;20857;47.808;12.482;2023-05-10T12:36:00;17.00;99.90
34646;DHT22;20857;47.808;12.482;2023-05-10T12:38:37;17.00;99.90
34646;DHT22;20857;47.808;12.482;2023-05-10T12:41:04;16.90;99.90
34646;DHT22;20857;47.808;12.482;2023-05-10T12:43:30;17.00;99.90
34646;DHT22;20857;47.808;12.482;2023-05-10T12:45:56;16.90;99.90
34646;DHT22;20857;47.808;12.482;2023-05-10T12:48:22;17.00;99.90
34646;DHT22;20857;47.808;12.482;2023-05-10T12:50:48;16.90;99.90
34646;DHT22;20857;47.808;12.482;2023-05-10T12:53:14;16.90;99.90
34646;DHT22;20857;47.808;12.482;2023-05-10T12:55:41;16.50;99.90
34646;DHT22;20857;47.808;12.482;2023-05-10T12:58:06;16.20;99.90
34646;DHT22;20857;47.808;12.482;2023-05-10T13:00:32;15.80;99.90
34646;DHT22;20857;47.808;12.482;2023-05-10T13:02:57;15.50;99.90
34646;DHT22;20857;47.808;12.482;2023-05-10T13:05:23;15.20;99.90
34646;DHT22;20857;47.808;12.482;2023-05-10T13:07:55;14.90;99.90
34646;DHT22;20857;47.808;12.482;2023-05-10T13:10:20;14.60;99.90
34646;DHT22;20857;47.808;12.482;2023-05-10T13:12:47;14.60;99.90
34646;DHT22;20857;47.808;12.482;2023-05-10T13:15:13;14.70;99.90
34646;DHT22;20857;47.808;12.482;2023-05-10T13:17:39;14.70;99.90
34646;DHT22;20857;47.808;12.482;2023-05-10T13:20:06;14.60;99.90
34646;DHT22;20857;47.808;12.482;2023-05-10T13:22:31;14.40;99.90
34646;DHT22;20857;47.808;12.482;2023-05-10T13:24:57;14.20;99.90
34646;DHT22;20857;47.808;12.482;2023-05-10T13:27:22;14.20;99.90
34646;DHT22;20857;47.808;12.482;2023-05-10T13:29:48;14.10;99.90
34646;DHT22;20857;47.808;12.482;2023-05-10T13:32:13;13.80;99.90
34646;DHT22;20857;47.808;12.482;2023-05-10T13:34:40;13.70;99.90
34646;DHT22;20857;47.808;12.482;2023-05-10T13:37:05;13.70;99.90
34646;DHT22;20857;47.808;12.482;2023-05-10T13:39:32;13.60;99.90
34646;DHT22;20857;47.808;12.482;2023-05-10T13:41:59;13.60;99.90
34646;DHT22;20857;47.808;12.482;2023-05-10T13:44:25;13.30;99.90
34646;DHT22;20857;47.808;12.482;2023-05-10T13:46:51;13.20;99.90
34646;DHT22;20857;47.808;12.482;2023-05-10T13:49:23;13.40;99.90
34646;DHT22;20857;47.808;12.482;2023-05-10T13:51:49;13.60;99.90
34646;DHT22;20857;47.808;12.482;2023-05-10T13:54:14;13.40;99.90
34646;DHT22;20857;47.808;12.482;2023-05-10T13:56:41;13.40;99.90
34646;DHT22;20857;47.808;12.482;2023-05-10T13:59:07;13.20;99.90
34646;DHT22;20857;47.808;12.482;2023-05-10T14:01:33;13.00;99.90
34646;DHT22;20857;47.808;12.482;2023-05-10T14:03:59;13.00;99.90
34646;DHT22;20857;47.808;12.482;2023-05-10T14:06:24;13.10;99.90
34646;DHT22;20857;47.808;12.482;2023-05-10T14:08:50;13.30;99.90
34646;DHT22;20857;47.808;12.482;2023-05-10T14:11:15;13.60;99.90
34646;DHT22;20857;47.808;12.482;2023-05-10T14:13:41;13.70;99.90
34646;DHT22;20857;47.808;12.482;2023-05-10T14:16:06;13.70;99.90
34646;DHT22;20857;47.808;12.482;2023-05-10T14:18:32;13.90;99.90
34646;DHT22;20857;47.808;12.482;2023-05-10T14:20:57;14.00;99.90
34646;DHT22;20857;47.808;12.482;2023-05-10T14:23:23;13.90;99.90
34646;DHT22;20857;47.808;12.482;2023-05-10T14:25:53;13.90;99.90
34646;DHT22;20857;47.808;12.482;2023-05-10T14:28:19;13.70;99.90
34646;DHT22;20857;47.808;12.482;2023-05-10T14:30:46;13.70;99.90
34646;DHT22;20857;47.808;12.482;2023-05-10T14:33:11;13.60;99.90
34646;DHT22;20857;47.808;12.482;2023-05-10T14:35:37;13.60;99.90
34646;DHT22;20857;47.808;12.482;2023-05-10T14:38:03;13.70;99.90
34646;DHT22;20857;47.808;12.482;2023-05-10T14:40:29;13.70;99.90
34646;DHT22;20857;47.808;12.482;2023-05-10T14:42:54;13.70;99.90
34646;DHT22;20857;47.808;12.482;2023-05-10T14:45:20;13.80;99.90
34646;DHT22;20857;47.808;12.482;2023-05-10T14:47:46;13.80;99.90
34646;DHT22;20857;47.808;12.482;2023-05-10T14:50:11;14.00;99.90
34646;DHT22;20857;47.808;12.482;2023-05-10T14:52:37;14.00;99.90
34646;DHT22;20857;47.808;12.482;2023-05-10T14:55:02;14.10;99.90
34646;DHT22;20857;47.808;12.482;2023-05-10T14:57:28;14.20;99.90
34646;DHT22;20857;47.808;12.482;2023-05-10T14:59:57;14.30;99.90
34646;DHT22;20857;47.808;12.482;2023-05-10T15:02:23;14.20;99.90
34646;DHT22;20857;47.808;12.482;2023-05-10T15:04:48;14.10;99.90
34646;DHT22;20857;47.808;12.482;2023-05-10T15:07:14;14.30;99.90
34646;DHT22;20857;47.808;12.482;2023-05-10T15:09:41;14.30;99.90
34646;DHT22;20857;47.808;12.482;2023-05-10T15:12:07;14.30;99.90
34646;DHT22;20857;47.808;12.482;2023-05-10T15:14:32;14.40;99.90
34646;DHT22;20857;47.808;12.482;2023-05-10T15:16:58;14.40;99.90
34646;DHT22;20857;47.808;12.482;2023-05-10T15:19:24;14.40;99.90
34646;DHT22;20857;47.808;12.482;2023-05-10T15:21:49;14.40;99.90
34646;DHT22;20857;47.808;12.482;2023-05-10T15:24:15;14.40;99.90
34646;DHT22;20857;47.808;12.482;2023-05-10T15:26:40;14.10;99.90
34646;DHT22;20857;47.808;12.482;2023-05-10T15:29:06;14.00;99.90
34646;DHT22;20857;47.808;12.482;2023-05-10T15:31:31;13.70;99.90
34646;DHT22;20857;47.808;12.482;2023-05-10T15:34:00;13.60;99.90
34646;DHT22;20857;47.808;12.482;2023-05-10T15:36:25;13.50;99.90
34646;DHT22;20857;47.808;12.482;2023-05-10T15:38:51;13.40;99.90
34646;DHT22;20857;47.808;12.482;2023-05-10T15:41:16;13.30;99.90
34646;DHT22;20857;47.808;12.482;2023-05-10T15:43:42;13.50;99.90